Impacts TAF Board
For situational awareness. Not to be used for flight planning purposes.
IDs:

KPHX - Phoenix/Sky Harbor, AZ, US

Issued at 1143 UTC 24 Jan 2021
Updated at 1326 UTC 24 Jan 2021
Potential Impact None Slight Moderate High
Time1251Z 24/14Z 24/15Z 24/16Z 24/17Z 24/18Z 24/19Z 24/20Z 24/21Z 24/22Z 24/23Z 25/00Z 25/01Z 25/02Z>>
Type OBS PRVL PRVL PRVL PRVL
  [TEMP]  
PRVL
  [TEMP]  
PRVL
  [TEMP]  
PRVL PRVL PRVL PRVL PRVL PRVL PRVL
VIS 10 >6 >6 >6 >6
  [5]  
>6
  [5]  
>6
  [5]  
>6 >6 >6 >6 >6 >6 >6
CIG 37 50 50 50 50
  [40]  
50
  [40]  
50
  [40]  
50 50 50 50 50 50 70
Cover BKN BKN BKN BKN BKN
  [BKN]  
BKN
  [BKN]  
BKN
  [BKN]  
BKN BKN BKN BKN BKN BKN BKN
FltCat VFR VFR VFR VFR VFR
  [MVFR]  
VFR
  [MVFR]  
VFR
  [MVFR]  
VFR VFR VFR VFR VFR VFR VFR
WX -- VCSH VCSH VCSH VCSH
  [-SHRA]  
VCSH
  [-SHRA]  
VCSH
  [-SHRA]  
VCSH VCSH VCSH VCSH VCSH VCSH --
WDir VRB 170 170 170 250
[250]
250
[250]
250
[250]
250 250 250 250 250 250 230
WSpd 0 6 6 6 9
  [9]  
9
  [9]  
9
  [9]  
9 9 9 9 9 9 6
WGst -- -- -- -- --
  [--]  
--
  [--]  
--
  [--]  
-- -- -- -- -- -- --
Raw TAF
KPHX 241143Z 2412/2518 17006KT P6SM VCSH SCT030 BKN050 BKN080
  FM241700 25009KT P6SM VCSH SCT030 BKN050
  TEMPO 2417/2420 5SM -SHRA BKN040
  FM250200 23006KT P6SM SCT040 BKN070
  FM250900 20007KT P6SM SCT040 BKN060


Raw METAR
KPHX 241251Z COR 00000KT 10SM SCT029 BKN037 BKN095 10/07 A2978 RMK AO2 LTG DSNT N RAB33E48 SLP080 OCNL LTGIC DSNT N CB DSNT N P0000 T01000072 $
KPHX 241151Z 15004KT 10SM BKN060 BKN080 BKN100 11/05 A2979 RMK AO2 SLP079 70001 T01110050 10122 20111 58007 $
KPHX 241051Z 27004KT 10SM BKN085 12/05 A2980 RMK AO2 SLP085 T01170050 $

METAR Board
Radar Display
Forecast Discussion
For situational awareness. Not to be used for flight planning purposes.